ADDS METAR Data INFO
IDs: Format: Raw Decoded Include TAF

Data at: 0213 UTC 19 Jul 2018

KBBD 190155Z AUTO 13005KT 10SM CLR 35/11 A2991 RMK AO2
KBBD 190135Z AUTO 12004KT 10SM CLR 35/11 A2991 RMK AO2
KBBD 190115Z AUTO 10004KT 10SM CLR 36/11 A2991 RMK AO2
KBBD 190055Z AUTO 09003KT 10SM CLR 37/11 A2991 RMK AO2
KBBD 190035Z AUTO 08004KT 10SM CLR 38/10 A2990 RMK AO2
KBBD 190015Z AUTO 11004KT 10SM CLR 38/10 A2990 RMK AO2
KBBD 182355Z AUTO 00000KT 10SM CLR 38/10 A2990 RMK AO2
KBBD 182335Z AUTO 00000KT 10SM CLR 38/10 A2990 RMK AO2
KBBD 182315Z AUTO 00000KT 10SM CLR 38/10 A2991 RMK AO2
KBBD 182255Z AUTO 12007KT 10SM CLR 39/10 A2992 RMK AO2
KBBD 182235Z AUTO VRB04KT 10SM CLR 39/10 A2992 RMK AO2
KBBD 182215Z AUTO 03005KT 10SM CLR 39/10 A2993 RMK AO2
KBBD 182155Z AUTO 09004KT 10SM CLR 38/10 A2994 RMK AO2
KBBD 182135Z AUTO 00000KT 10SM CLR 38/10 A2994 RMK AO2
KBBD 182115Z AUTO 17007KT 10SM CLR 38/10 A2995 RMK AO2
KBBD 182055Z AUTO VRB03G10KT 10SM CLR 38/09 A2996 RMK AO2
KBBD 182035Z AUTO VRB04G11KT 10SM CLR 38/10 A2996 RMK AO2
KBBD 182015Z AUTO 00000KT 10SM CLR 37/11 A2997 RMK AO2
KBBD 181955Z AUTO VRB04G11KT 10SM CLR 37/11 A2997 RMK AO2
KBBD 181935Z AUTO VRB03G15KT 10SM CLR 37/11 A2998 RMK AO2
KBBD 181915Z AUTO 19006KT 10SM CLR 37/12 A2999 RMK AO2
KBBD 181855Z AUTO VRB05G12KT 10SM CLR 37/12 A3000 RMK AO2
KBBD 181835Z AUTO 18008KT 10SM CLR 36/12 A3001 RMK AO2
KBBD 181815Z AUTO 20004KT 10SM CLR 36/15 A3002 RMK AO2
KBBD 181755Z AUTO 26009KT 10SM CLR 35/16 A3003 RMK AO2
KBBD 181735Z AUTO 20004G10KT 10SM CLR 35/16 A3004 RMK AO2
KBBD 181715Z AUTO VRB06G13KT 10SM CLR 35/17 A3004 RMK AO2
KBBD 181655Z AUTO 24010KT 10SM CLR 34/18 A3005 RMK AO2
KBBD 181635Z AUTO 24009G14KT 10SM CLR 33/18 A3005 RMK AO2
KBBD 181615Z AUTO 23012G17KT 10SM CLR 33/19 A3005 RMK AO2
KBBD 181555Z AUTO 23010G15KT 10SM CLR 32/20 A3005 RMK AO2
KBBD 181535Z AUTO 22010KT 10SM CLR 31/20 A3006 RMK AO2
KBBD 181515Z AUTO 23011G16KT 10SM CLR 31/21 A3006 RMK AO2
KBBD 181455Z AUTO 22011G16KT 10SM CLR 30/21 A3006 RMK AO2
KBBD 181435Z AUTO 20011KT 10SM CLR 29/21 A3007 RMK AO2
KBBD 181415Z AUTO 21014KT 10SM CLR 28/21 A3007 RMK AO2
KBBD 181355Z AUTO 21012KT 10SM CLR 27/21 A3007 RMK AO2
KBBD 181335Z AUTO 21010KT 10SM CLR 26/22 A3007 RMK AO2
KBBD 181315Z AUTO 21009KT 10SM CLR 25/21 A3007 RMK AO2
KBBD 181255Z AUTO 20008KT 10SM CLR 25/21 A3007 RMK AO2
KBBD 181235Z AUTO 20007KT 10SM CLR 24/20 A3007 RMK AO2
KBBD 181215Z AUTO 20006KT 10SM CLR 24/20 A3007 RMK AO2
KBBD 181155Z AUTO 20007KT 10SM CLR 24/20 A3006 RMK AO2
KBBD 181135Z AUTO 21008KT 10SM CLR 23/19 A3006 RMK AO2
KBBD 181115Z AUTO 21006KT 10SM CLR 23/19 A3006 RMK AO2
KBBD 181055Z AUTO 20005KT 10SM CLR 24/19 A3006 RMK AO2
KBBD 181035Z AUTO 20007KT 10SM CLR 24/18 A3005 RMK AO2
KBBD 181015Z AUTO 19006KT 10SM CLR 25/18 A3005 RMK AO2
KBBD 180955Z AUTO 18005KT 10SM SCT100 25/17 A3005 RMK AO2
KBBD 180935Z AUTO 19008KT 10SM OVC110 25/17 A3005 RMK AO2
KBBD 180915Z AUTO 19008KT 10SM BKN110 25/16 A3006 RMK AO2
KBBD 180855Z AUTO 19005KT 10SM FEW110 25/15 A3006 RMK AO2
KBBD 180835Z AUTO 18005KT 10SM CLR 25/15 A3006 RMK AO2
KBBD 180815Z AUTO 17005KT 10SM CLR 26/15 A3006 RMK AO2
KBBD 180755Z AUTO 18005KT 10SM FEW050 26/15 A3006 RMK AO2
KBBD 180735Z AUTO 18005KT 10SM CLR 26/14 A3006 RMK AO2
KBBD 180715Z AUTO 19005KT 10SM CLR 26/14 A3006 RMK AO2
KBBD 180655Z AUTO 19005KT 10SM CLR 26/14 A3005 RMK AO2
KBBD 180635Z AUTO 19005KT 10SM CLR 26/14 A3005 RMK AO2
KBBD 180615Z AUTO 18005KT 10SM CLR 27/14 A3005 RMK AO2
KBBD 180555Z AUTO 16006KT 10SM CLR 28/14 A3005 RMK AO2
KBBD 180535Z AUTO 16006KT 10SM CLR 28/14 A3005 RMK AO2
KBBD 180515Z AUTO 14006KT 10SM CLR 28/14 A3005 RMK AO2
KBBD 180455Z AUTO 17005KT 10SM CLR 29/13 A3005 RMK AO2
KBBD 180435Z AUTO 17006KT 10SM CLR 30/13 A3005 RMK AO2
KBBD 180415Z AUTO 17007KT 10SM CLR 30/13 A3004 RMK AO2
KBBD 180355Z AUTO 16007KT 10SM CLR 30/12 A3003 RMK AO2
KBBD 180335Z AUTO 17007KT 10SM CLR 30/10 A3003 RMK AO2
KBBD 180315Z AUTO 18006KT 10SM CLR 31/09 A3002 RMK AO2
KBBD 180255Z AUTO 18007KT 10SM CLR 31/09 A3001 RMK AO2
KBBD 180235Z AUTO 15007KT 10SM CLR 31/08 A3001 RMK AO2
KBBD 180215Z AUTO 14004KT 10SM CLR 32/08 A3001 RMK AO2
KBBD 180155Z AUTO 16005KT 10SM CLR 33/08 A3001 RMK AO2
KBBD 180135Z AUTO 15004KT 10SM CLR 35/07 A3000 RMK AO2
KBBD 180115Z AUTO 00000KT 10SM CLR 35/06 A3000 RMK AO2
KBBD 180055Z AUTO 22004KT 10SM CLR 35/08 A3000 RMK AO2
KBBD 180035Z AUTO 23007KT 10SM CLR 36/06 A2999 RMK AO2
KBBD 180015Z AUTO 20004KT 10SM CLR 37/05 A2999 RMK AO2
KBBD 172355Z AUTO 19006KT 10SM CLR 37/05 A3000 RMK AO2
KBBD 172335Z AUTO 22008KT 10SM CLR 37/05 A3000 RMK AO2
KBBD 172315Z AUTO VRB06KT 9SM CLR 38/04 A3001 RMK AO2
KBBD 172255Z AUTO 16010KT 10SM CLR 38/04 A3001 RMK AO2
KBBD 172235Z AUTO 15008KT 9SM CLR 38/05 A3001 RMK AO2
KBBD 172215Z AUTO 14006KT 10SM CLR 38/04 A3002 RMK AO2
KBBD 172155Z AUTO 20008KT 10SM CLR 37/05 A3002 RMK AO2
KBBD 172135Z AUTO VRB06G12KT 9SM CLR 38/04 A3003 RMK AO2
KBBD 172115Z AUTO 19006G14KT 10SM CLR 37/04 A3003 RMK AO2
KBBD 172055Z AUTO 00000KT 10SM CLR 37/04 A3004 RMK AO2
KBBD 172035Z AUTO VRB04KT 10SM CLR 37/05 A3005 RMK AO2
KBBD 172015Z AUTO VRB04KT 10SM CLR 37/05 A3006 RMK AO2
KBBD 171955Z AUTO 00000G10KT 10SM CLR 36/05 A3007 RMK AO2
KBBD 171935Z AUTO 20006KT 10SM CLR 36/05 A3008 RMK AO2
KBBD 171915Z AUTO 00000G11KT 9SM CLR 35/04 A3008 RMK AO2
KBBD 171855Z AUTO 22004KT 9SM CLR 35/06 A3009 RMK AO2
KBBD 171835Z AUTO 16006KT 9SM CLR 35/05 A3010 RMK AO2
KBBD 171815Z AUTO 00000G11KT 10SM CLR 34/09 A3010 RMK AO2
KBBD 171755Z AUTO VRB06KT 9SM CLR 34/11 A3011 RMK AO2
KBBD 171735Z AUTO 18006G11KT 10SM CLR 33/11 A3012 RMK AO2
KBBD 171715Z AUTO 21008KT 9SM CLR 33/12 A3013 RMK AO2
KBBD 171655Z AUTO 19009KT 10SM CLR 32/11 A3013 RMK AO2
KBBD 171635Z AUTO 19008G15KT 10SM CLR 32/12 A3013 RMK AO2
KBBD 171615Z AUTO 19011KT 10SM CLR 31/13 A3013 RMK AO2
KBBD 171555Z AUTO 21010KT 10SM CLR 30/14 A3013 RMK AO2
KBBD 171535Z AUTO 19012KT 10SM CLR 29/15 A3013 RMK AO2
KBBD 171515Z AUTO 19012KT 10SM CLR 29/15 A3013 RMK AO2
KBBD 171455Z AUTO 20013KT 10SM CLR 28/16 A3013 RMK AO2
KBBD 171435Z AUTO 20013KT 10SM CLR 28/16 A3013 RMK AO2
KBBD 171415Z AUTO 21013KT 10SM CLR 27/17 A3013 RMK AO2